Time;durP1;ratioP1;P1;durP2;ratioP2;P2;SDS_P1;SDS_P2;PMS_P1;PMS_P2;Temp;Humidity;BMP_temperature;BMP_pressure;BME280_temperature;BME280_humidity;BME280_pressure;Samples;Min_cycle;Max_cycle;Signal;HPM_P1;HPM_P2
2023/07/10 00:02:09;;;;;;;8.23;7.53;;;26.30;12.40;;;;;;4953800;28;20530;-49
2023/07/10 00:04:35;;;;;;;9.27;7.93;;;26.30;12.50;;;;;;4953937;28;20794;-52
2023/07/10 00:07:01;;;;;;;8.60;8.00;;;26.20;13.00;;;;;;4953763;29;20427;-48
2023/07/10 00:09:27;;;;;;;8.57;7.93;;;26.20;12.50;;;;;;4937699;29;20418;-51
2023/07/10 00:11:52;;;;;;;9.70;8.90;;;26.20;12.60;;;;;;4937801;29;20186;-53
2023/07/10 00:14:20;;;;;;;8.50;7.90;;;26.20;12.70;;;;;;4937722;29;20275;-52
2023/07/10 00:16:47;;;;;;;9.07;8.47;;;26.10;12.60;;;;;;4953691;28;20187;-48
2023/07/10 00:19:14;;;;;;;9.47;8.77;;;26.10;12.70;;;;;;4953458;28;20473;-46
2023/07/10 00:21:40;;;;;;;8.33;7.80;;;26.10;12.60;;;;;;4953543;28;20457;-51
2023/07/10 00:24:07;;;;;;;8.20;7.67;;;26.10;12.60;;;;;;4937515;29;20426;-50
2023/07/10 00:26:33;;;;;;;8.80;8.10;;;26.10;12.60;;;;;;4937583;29;20423;-52
2023/07/10 00:29:04;;;;;;;8.60;8.10;;;26.10;12.60;;;;;;4953205;28;20813;-48
2023/07/10 00:31:29;;;;;;;8.50;7.90;;;26.10;11.40;;;;;;4953517;28;20427;-50
2023/07/10 00:33:55;;;;;;;9.33;8.53;;;26.20;11.50;;;;;;4937422;29;20437;-46
2023/07/10 00:36:31;;;;;;;9.27;8.47;;;26.10;11.70;;;;;;4937393;29;20226;-50
2023/07/10 00:39:04;;;;;;;8.20;7.70;;;26.10;11.70;;;;;;4952965;29;20183;-48
2023/07/10 00:41:34;;;;;;;8.67;8.07;;;26.10;11.50;;;;;;4953200;28;20415;-46
2023/07/10 00:44:01;;;;;;;8.17;7.63;;;26.20;11.60;;;;;;4953097;28;20419;-48
2023/07/10 00:46:54;;;;;;;8.60;8.00;;;26.10;11.60;;;;;;4937280;29;20797;-51
2023/07/10 00:49:37;;;;;;;8.50;7.90;;;26.10;11.60;;;;;;4953834;29;20430;-49
2023/07/10 00:52:20;;;;;;;8.33;7.77;;;26.10;11.70;;;;;;4952914;28;20425;-53
2023/07/10 00:54:52;;;;;;;7.80;7.40;;;26.10;11.80;;;;;;4953087;29;20430;-50
2023/07/10 00:57:33;;;;;;;9.20;8.60;;;26.10;11.70;;;;;;4952965;28;20442;-47
2023/07/10 01:00:00;;;;;;;8.40;7.80;;;26.10;11.80;;;;;;4952824;28;20724;-48
2023/07/10 01:02:26;;;;;;;8.43;7.80;;;26.10;11.80;;;;;;4952891;28;20601;-49
2023/07/10 01:05:02;;;;;;;9.00;8.30;;;26.10;11.70;;;;;;4952823;28;20514;-48
2023/07/10 01:07:33;;;;;;;10.40;9.30;;;26.10;11.70;;;;;;4952919;28;20449;-49
2023/07/10 01:10:02;;;;;;;8.47;7.87;;;26.10;11.70;;;;;;4952908;28;20505;-51
2023/07/10 01:12:30;;;;;;;8.13;7.63;;;26.10;11.70;;;;;;4936815;29;20974;-46
2023/07/10 01:14:56;;;;;;;7.80;7.40;;;26.10;11.80;;;;;;4954088;29;20793;-52
2023/07/10 01:17:22;;;;;;;9.10;8.30;;;26.10;11.80;;;;;;4952747;28;20422;-52
2023/07/10 01:19:49;;;;;;;8.13;7.63;;;26.00;11.90;;;;;;4952487;28;20450;-48
2023/07/10 01:22:15;;;;;;;9.17;8.47;;;26.00;12.20;;;;;;4952636;28;20482;-52
2023/07/10 01:24:42;;;;;;;8.17;7.67;;;26.00;12.10;;;;;;4952704;29;20434;-51
2023/07/10 01:27:12;;;;;;;8.13;7.63;;;25.90;12.20;;;;;;4952673;28;20418;-50
2023/07/10 01:29:43;;;;;;;8.10;7.33;;;25.90;12.30;;;;;;4952590;29;20920;-52
2023/07/10 01:32:15;;;;;;;8.70;8.10;;;25.90;12.50;;;;;;4952651;28;20435;-51
2023/07/10 01:34:47;;;;;;;9.10;8.40;;;25.90;12.50;;;;;;4952633;28;20426;-50
2023/07/10 01:37:12;;;;;;;8.47;7.90;;;25.80;12.50;;;;;;4952625;28;20916;-53
2023/07/10 01:39:47;;;;;;;9.03;8.43;;;25.80;12.50;;;;;;4936497;29;20438;-52
2023/07/10 01:42:14;;;;;;;8.07;7.47;;;25.80;12.60;;;;;;4952448;28;20667;-50
2023/07/10 01:44:42;;;;;;;8.77;8.17;;;25.80;12.70;;;;;;4952616;28;20418;-49
2023/07/10 01:47:10;;;;;;;8.20;7.70;;;25.70;12.80;;;;;;4952495;28;20427;-46
2023/07/10 01:49:57;;;;;;;8.83;8.17;;;25.70;13.00;;;;;;4952097;28;20834;-49
2023/07/10 01:52:24;;;;;;;9.53;8.77;;;25.70;13.00;;;;;;4936489;29;20427;-51
2023/07/10 01:54:50;;;;;;;8.87;8.10;;;25.70;13.00;;;;;;4944735;28;20422;-50
2023/07/10 01:57:18;;;;;;;9.77;8.27;;;25.70;13.30;;;;;;4971568;28;20522;-48
2023/07/10 01:59:44;;;;;;;8.90;8.40;;;25.70;13.30;;;;;;4971314;28;20837;-51
2023/07/10 02:02:09;;;;;;;8.70;8.10;;;25.70;13.40;;;;;;4971411;28;20474;-49
2023/07/10 02:04:35;;;;;;;9.83;8.80;;;25.70;13.60;;;;;;4955987;28;20492;-50
2023/07/10 02:07:01;;;;;;;9.07;8.47;;;25.70;13.70;;;;;;4975289;28;20190;-48
2023/07/10 02:09:29;;;;;;;9.87;9.10;;;25.70;14.00;;;;;;4975185;28;20178;-46
2023/07/10 02:11:55;;;;;;;9.93;9.13;;;25.70;14.50;;;;;;4975244;28;20421;-52
2023/07/10 02:14:22;;;;;;;10.00;9.30;;;25.60;14.60;;;;;;4975254;28;20798;-47
2023/07/10 02:16:48;;;;;;;9.93;9.23;;;25.60;14.70;;;;;;4975226;28;20425;-49
2023/07/10 02:19:14;;;;;;;9.10;8.40;;;25.60;15.60;;;;;;4958867;28;20450;-51
2023/07/10 02:21:40;;;;;;;9.93;9.03;;;25.60;15.40;;;;;;4975342;28;20424;-47
2023/07/10 02:24:06;;;;;;;8.97;8.37;;;25.60;15.50;;;;;;4958948;28;20642;-50
2023/07/10 02:26:32;;;;;;;9.63;8.83;;;25.60;15.70;;;;;;4975131;28;20221;-49
2023/07/10 02:28:58;;;;;;;10.07;9.33;;;25.60;16.00;;;;;;4974854;28;20421;-49
2023/07/10 02:31:25;;;;;;;8.90;8.20;;;25.60;16.80;;;;;;4974964;28;20420;-50
2023/07/10 02:33:50;;;;;;;10.07;9.47;;;25.60;16.80;;;;;;4974850;28;20520;-49
2023/07/10 02:36:16;;;;;;;10.00;9.20;;;25.50;17.00;;;;;;4958691;28;20589;-48
2023/07/10 02:38:42;;;;;;;10.67;9.87;;;25.50;17.40;;;;;;4958517;28;20212;-46
2023/07/10 02:41:08;;;;;;;10.23;9.53;;;25.50;17.40;;;;;;4958568;28;20281;-49
2023/07/10 02:43:34;;;;;;;16.90;10.00;;;25.50;17.40;;;;;;4958612;28;20552;-46
2023/07/10 02:45:59;;;;;;;10.33;9.53;;;25.50;17.60;;;;;;4958527;28;20241;-50
2023/07/10 02:48:25;;;;;;;10.00;9.23;;;25.60;17.70;;;;;;4958359;28;20210;-48
2023/07/10 02:50:51;;;;;;;12.00;11.10;;;25.50;17.50;;;;;;4958415;28;20178;-46
2023/07/10 02:53:16;;;;;;;11.13;10.33;;;25.50;17.60;;;;;;4958613;28;20275;-46
2023/07/10 02:55:43;;;;;;;10.73;9.93;;;25.50;17.60;;;;;;4958488;28;20194;-49
2023/07/10 02:58:09;;;;;;;10.17;9.40;;;25.50;17.50;;;;;;4974204;28;20194;-47
2023/07/10 03:00:35;;;;;;;9.30;8.70;;;25.50;17.40;;;;;;4974450;28;20418;-48
2023/07/10 03:03:01;;;;;;;12.60;11.40;;;25.50;17.50;;;;;;4974203;28;20214;-46
2023/07/10 03:05:27;;;;;;;10.07;9.37;;;25.50;18.60;;;;;;4958311;28;20414;-47
2023/07/10 03:07:52;;;;;;;10.93;10.03;;;25.60;18.80;;;;;;4974025;28;20179;-50
2023/07/10 03:10:19;;;;;;;10.53;9.83;;;25.60;18.60;;;;;;4958193;28;20189;-47
2023/07/10 03:12:45;;;;;;;10.10;9.50;;;25.60;18.40;;;;;;4974182;28;20179;-48
2023/07/10 03:15:11;;;;;;;11.03;9.93;;;25.60;18.10;;;;;;4973959;28;20809;-49
2023/07/10 03:17:37;;;;;;;11.13;10.00;;;25.50;18.20;;;;;;4974008;28;20939;-47
2023/07/10 03:20:03;;;;;;;11.47;10.47;;;25.60;18.30;;;;;;4957692;28;20425;-46
2023/07/10 03:22:28;;;;;;;11.80;10.90;;;25.50;18.30;;;;;;4957752;28;20214;-49
2023/07/10 03:24:55;;;;;;;11.50;10.70;;;25.60;18.30;;;;;;4957700;28;20414;-52
2023/07/10 03:27:20;;;;;;;10.70;10.10;;;25.60;18.30;;;;;;4957851;28;20277;-47
2023/07/10 03:29:46;;;;;;;11.43;10.73;;;25.60;18.40;;;;;;4957504;28;20581;-47
2023/07/10 03:32:12;;;;;;;11.00;10.20;;;25.60;18.50;;;;;;4957763;28;20182;-51
2023/07/10 03:34:37;;;;;;;11.50;10.60;;;25.50;18.70;;;;;;4957669;28;20760;-46
2023/07/10 03:37:03;;;;;;;10.00;9.30;;;25.50;18.80;;;;;;4957536;28;20189;-48
2023/07/10 03:39:29;;;;;;;10.87;10.27;;;25.50;18.80;;;;;;4957330;28;20281;-46
2023/07/10 03:41:55;;;;;;;11.87;11.17;;;25.50;18.90;;;;;;4957521;28;20553;-47
2023/07/10 03:44:21;;;;;;;11.60;10.57;;;25.40;18.90;;;;;;4957554;28;20187;-46
2023/07/10 03:46:47;;;;;;;11.93;10.90;;;25.40;19.00;;;;;;4957463;28;20542;-51
2023/07/10 03:49:13;;;;;;;12.07;11.27;;;25.40;19.10;;;;;;4957240;28;20407;-50
2023/07/10 03:51:39;;;;;;;11.80;11.00;;;25.40;19.10;;;;;;4957392;28;20183;-49
2023/07/10 03:54:05;;;;;;;11.90;11.00;;;25.40;19.20;;;;;;4957209;28;20922;-45
2023/07/10 03:56:31;;;;;;;11.30;10.70;;;25.40;19.30;;;;;;4957402;28;20179;-47
2023/07/10 03:58:57;;;;;;;12.00;11.30;;;25.40;19.40;;;;;;4957022;28;20410;-48
2023/07/10 04:01:23;;;;;;;12.87;11.97;;;25.30;19.40;;;;;;4957176;28;20497;-51
2023/07/10 04:03:48;;;;;;;12.57;11.57;;;25.40;19.40;;;;;;4957008;28;20632;-48
2023/07/10 04:06:15;;;;;;;12.10;10.90;;;25.40;19.30;;;;;;4957034;28;20607;-53
2023/07/10 04:08:42;;;;;;;10.20;9.43;;;25.40;19.20;;;;;;4974042;28;20179;-51
2023/07/10 04:11:10;;;;;;;11.73;10.90;;;25.40;19.20;;;;;;4973064;28;20557;-48
2023/07/10 04:13:37;;;;;;;11.60;10.80;;;25.40;19.30;;;;;;4956898;28;20437;-49
2023/07/10 04:16:02;;;;;;;12.40;11.60;;;25.40;19.50;;;;;;4956972;28;20418;-50
2023/07/10 04:18:29;;;;;;;10.93;10.33;;;25.30;19.50;;;;;;4956688;28;20450;-46
2023/07/10 04:20:56;;;;;;;11.80;11.10;;;25.40;19.50;;;;;;4956979;28;20554;-48
2023/07/10 04:23:22;;;;;;;12.33;11.43;;;25.40;19.40;;;;;;4956538;28;20490;-48
2023/07/10 04:25:48;;;;;;;13.43;12.57;;;25.40;19.60;;;;;;4956728;28;20514;-51
2023/07/10 04:28:13;;;;;;;12.17;11.37;;;25.40;19.40;;;;;;4956068;28;20182;-48
2023/07/10 04:30:39;;;;;;;10.87;10.10;;;25.50;19.30;;;;;;4956619;28;20422;-49
2023/07/10 04:33:08;;;;;;;10.57;9.97;;;25.50;19.30;;;;;;4956615;28;20193;-47
2023/07/10 04:35:34;;;;;;;10.57;9.87;;;25.50;19.30;;;;;;4956582;28;20551;-50
2023/07/10 04:38:00;;;;;;;11.23;10.00;;;25.50;19.30;;;;;;4972310;28;20472;-47
2023/07/10 04:40:25;;;;;;;10.73;9.93;;;25.50;19.30;;;;;;4956538;28;20446;-48
2023/07/10 04:42:51;;;;;;;11.20;10.40;;;25.50;19.40;;;;;;4953691;28;20206;-46
2023/07/10 04:45:17;;;;;;;10.80;10.00;;;25.50;19.60;;;;;;4935008;28;20175;-47
2023/07/10 04:47:43;;;;;;;11.20;10.10;;;25.50;20.10;;;;;;4945732;28;20428;-46
2023/07/10 04:50:09;;;;;;;11.37;10.50;;;25.50;19.90;;;;;;4936665;29;20419;-52
2023/07/10 04:52:35;;;;;;;11.37;10.33;;;25.50;19.80;;;;;;4936718;29;20191;-45
2023/07/10 04:55:00;;;;;;;11.30;10.03;;;25.50;19.80;;;;;;4954632;28;20441;-48
2023/07/10 04:57:26;;;;;;;10.93;10.23;;;25.50;20.00;;;;;;4955323;28;20193;-48
2023/07/10 04:59:51;;;;;;;11.00;10.20;;;25.40;19.90;;;;;;4955551;28;20648;-49
2023/07/10 05:02:17;;;;;;;11.10;10.30;;;25.40;20.00;;;;;;4955941;28;20244;-45
2023/07/10 05:04:43;;;;;;;10.57;9.83;;;25.40;20.10;;;;;;4955785;28;20260;-49
2023/07/10 05:07:09;;;;;;;11.93;10.93;;;25.40;20.30;;;;;;4971906;28;20544;-49
2023/07/10 05:09:35;;;;;;;13.00;12.03;;;25.40;20.20;;;;;;4971961;28;20206;-51
2023/07/10 05:12:01;;;;;;;12.30;11.53;;;25.50;20.20;;;;;;4951998;28;20869;-50
2023/07/10 05:14:26;;;;;;;12.40;11.50;;;25.50;20.00;;;;;;4950478;28;20194;-46
2023/07/10 05:16:52;;;;;;;13.83;12.60;;;25.50;20.00;;;;;;4955710;28;20273;-50
2023/07/10 05:19:17;;;;;;;14.27;13.37;;;25.50;20.10;;;;;;4955274;28;20297;-46
2023/07/10 05:21:43;;;;;;;12.33;11.40;;;25.50;20.10;;;;;;4953820;28;20190;-47
2023/07/10 05:24:09;;;;;;;13.07;12.17;;;25.50;20.10;;;;;;4955326;28;20182;-50
2023/07/10 05:26:34;;;;;;;12.67;11.60;;;25.50;20.10;;;;;;4971651;28;20628;-49
2023/07/10 05:29:00;;;;;;;12.87;12.17;;;25.50;20.00;;;;;;4972774;28;20189;-47
2023/07/10 05:31:26;;;;;;;12.90;11.90;;;25.60;19.90;;;;;;4970736;28;20632;-44
2023/07/10 05:33:52;;;;;;;11.67;10.97;;;25.60;19.70;;;;;;4949632;29;20799;-48
2023/07/10 05:36:18;;;;;;;11.03;10.37;;;25.60;19.60;;;;;;4953540;28;20187;-46
2023/07/10 05:38:48;;;;;;;12.30;11.30;;;25.60;19.60;;;;;;4952102;28;20645;-47
2023/07/10 05:41:18;;;;;;;11.53;10.77;;;25.70;19.50;;;;;;4956047;28;20425;-52
2023/07/10 05:43:45;;;;;;;11.87;10.93;;;25.70;19.60;;;;;;4959154;28;20462;-49
2023/07/10 05:46:11;;;;;;;11.07;10.10;;;25.70;19.70;;;;;;4958707;28;20426;-48
2023/07/10 05:48:37;;;;;;;11.87;11.07;;;25.70;19.70;;;;;;4976101;28;20421;-49
2023/07/10 05:51:03;;;;;;;12.17;11.50;;;25.80;19.50;;;;;;4958645;28;20441;-49
2023/07/10 05:53:30;;;;;;;12.93;11.97;;;25.90;19.30;;;;;;4958993;28;20418;-49
2023/07/10 05:55:57;;;;;;;13.03;11.73;;;25.90;19.20;;;;;;4958818;28;20472;-51
2023/07/10 05:58:26;;;;;;;13.90;12.50;;;26.00;19.20;;;;;;4951392;29;20427;-46
2023/07/10 06:00:56;;;;;;;12.40;11.60;;;26.00;19.40;;;;;;4940029;29;20426;-50
2023/07/10 06:03:22;;;;;;;12.50;11.70;;;26.00;19.50;;;;;;4939969;29;20470;-55
2023/07/10 06:05:55;;;;;;;12.63;11.93;;;26.10;19.50;;;;;;4939999;29;20419;-54
2023/07/10 06:08:22;;;;;;;13.10;11.90;;;26.10;19.30;;;;;;4939826;29;20431;-53
2023/07/10 06:10:48;;;;;;;12.60;11.60;;;26.10;19.30;;;;;;4939895;29;20425;-52
2023/07/10 06:13:14;;;;;;;11.63;10.73;;;26.10;19.30;;;;;;4939871;29;20924;-52
2023/07/10 06:15:44;;;;;;;11.60;10.90;;;26.20;19.20;;;;;;4957623;28;20957;-54
2023/07/10 06:18:10;;;;;;;12.80;11.90;;;26.20;19.00;;;;;;4976173;28;20277;-52
2023/07/10 06:20:36;;;;;;;12.50;11.43;;;26.30;18.80;;;;;;4958966;28;20446;-52
2023/07/10 06:23:02;;;;;;;12.30;11.17;;;26.40;18.50;;;;;;4958740;28;20465;-55
2023/07/10 06:25:28;;;;;;;13.53;12.53;;;26.50;18.30;;;;;;4958937;28;20613;-48
2023/07/10 06:27:53;;;;;;;12.07;11.03;;;26.50;18.40;;;;;;4950688;29;20603;-51
2023/07/10 06:30:19;;;;;;;12.20;11.43;;;26.60;18.60;;;;;;4939761;29;20210;-51
2023/07/10 06:32:44;;;;;;;12.83;11.73;;;26.70;18.40;;;;;;4939622;29;20525;-52
2023/07/10 06:35:13;;;;;;;13.47;12.23;;;26.70;18.40;;;;;;4939015;29;20524;-55
2023/07/10 06:37:43;;;;;;;12.50;11.20;;;26.80;18.40;;;;;;4938806;29;20559;-52
2023/07/10 06:40:12;;;;;;;11.80;11.10;;;26.80;18.20;;;;;;4937740;29;20427;-49
2023/07/10 06:42:38;;;;;;;12.33;11.53;;;26.80;18.40;;;;;;4937662;29;20469;-52
2023/07/10 06:45:04;;;;;;;12.30;11.43;;;26.80;18.60;;;;;;4938001;29;20415;-49
2023/07/10 06:47:31;;;;;;;12.30;11.40;;;26.90;18.40;;;;;;4937994;29;20184;-55
2023/07/10 06:49:58;;;;;;;12.77;11.87;;;26.90;18.30;;;;;;4937187;28;20419;-55
2023/07/10 06:52:23;;;;;;;12.13;11.20;;;27.00;18.30;;;;;;4937468;29;20430;-53
2023/07/10 06:54:49;;;;;;;11.87;10.97;;;27.00;18.10;;;;;;4937629;29;20419;-52
2023/07/10 06:57:15;;;;;;;13.30;12.03;;;27.10;18.30;;;;;;4938356;29;20198;-55
2023/07/10 06:59:40;;;;;;;11.73;11.00;;;27.10;18.30;;;;;;4939253;29;20282;-55
2023/07/10 07:02:06;;;;;;;11.27;10.57;;;27.10;18.20;;;;;;4939009;29;20254;-59
2023/07/10 07:04:32;;;;;;;11.63;10.80;;;27.10;17.50;;;;;;4939092;29;20179;-53
2023/07/10 07:06:58;;;;;;;11.73;10.80;;;27.10;17.50;;;;;;4938937;29;20184;-50
2023/07/10 07:09:24;;;;;;;11.57;10.77;;;27.10;17.90;;;;;;4938501;29;20238;-51
2023/07/10 07:11:49;;;;;;;11.40;10.70;;;27.10;17.60;;;;;;4939165;29;20836;-49
2023/07/10 07:14:15;;;;;;;10.77;10.07;;;27.20;17.60;;;;;;4939078;29;20469;-45
2023/07/10 07:16:40;;;;;;;11.40;10.60;;;27.20;17.60;;;;;;4938742;29;20191;-49
2023/07/10 07:19:06;;;;;;;12.47;11.37;;;27.10;17.50;;;;;;4938523;29;20645;-51
2023/07/10 07:21:32;;;;;;;11.93;10.70;;;27.10;17.50;;;;;;4938885;29;20179;-48
2023/07/10 07:23:57;;;;;;;11.70;11.00;;;27.10;17.80;;;;;;4938639;29;20214;-45
2023/07/10 07:26:24;;;;;;;11.83;11.03;;;27.10;17.90;;;;;;4938760;29;20176;-44
2023/07/10 07:28:50;;;;;;;11.00;10.17;;;27.00;17.70;;;;;;4938354;29;20179;-48
2023/07/10 07:31:16;;;;;;;11.00;10.10;;;27.00;17.80;;;;;;4938615;29;20421;-48
2023/07/10 07:33:42;;;;;;;11.67;10.87;;;26.90;18.10;;;;;;4938431;29;20266;-45
2023/07/10 07:36:07;;;;;;;11.53;10.77;;;26.90;18.30;;;;;;4938521;29;20183;-46
2023/07/10 07:38:33;;;;;;;11.40;10.60;;;27.00;18.40;;;;;;4938187;29;20183;-49
2023/07/10 07:40:59;;;;;;;11.07;10.40;;;27.00;18.20;;;;;;4938416;29;20179;-48
2023/07/10 07:43:25;;;;;;;10.87;10.37;;;27.20;18.20;;;;;;4938240;29;20474;-48
2023/07/10 07:45:55;;;;;;;10.03;9.53;;;27.40;17.70;;;;;;4938277;29;20179;-47
2023/07/10 07:48:23;;;;;;;9.87;9.23;;;27.60;17.10;;;;;;4938008;29;20594;-47
2023/07/10 07:50:55;;;;;;;11.10;10.50;;;27.70;16.70;;;;;;4938126;29;20415;-44
2023/07/10 07:53:20;;;;;;;10.30;9.80;;;27.60;16.60;;;;;;4954081;29;20418;-47
2023/07/10 07:55:46;;;;;;;10.10;9.37;;;27.50;17.20;;;;;;4938099;29;20431;-49
2023/07/10 07:58:11;;;;;;;11.00;10.00;;;27.60;17.40;;;;;;4938033;29;20193;-47
2023/07/10 08:00:37;;;;;;;11.60;10.80;;;27.60;17.20;;;;;;4938158;29;20179;-46
2023/07/10 08:03:02;;;;;;;9.97;9.27;;;27.70;17.30;;;;;;4936962;29;20672;-46
2023/07/10 08:05:28;;;;;;;10.77;10.07;;;27.70;17.00;;;;;;4953978;29;20221;-44
2023/07/10 08:07:54;;;;;;;9.53;9.03;;;27.70;17.20;;;;;;4937594;29;20183;-44
2023/07/10 08:10:19;;;;;;;11.90;10.90;;;27.70;17.10;;;;;;4937918;29;20321;-46
2023/07/10 08:12:45;;;;;;;10.87;10.17;;;27.90;16.50;;;;;;4937692;29;20187;-45
2023/07/10 08:15:10;;;;;;;10.73;10.03;;;28.00;16.80;;;;;;4937854;29;20182;-45
2023/07/10 08:17:36;;;;;;;10.23;9.63;;;27.90;17.50;;;;;;4937612;29;20194;-44
2023/07/10 08:20:02;;;;;;;9.77;9.27;;;27.90;16.70;;;;;;4937370;29;20183;-45
2023/07/10 08:22:27;;;;;;;11.57;10.80;;;27.80;17.40;;;;;;4937551;29;20222;-47
2023/07/10 08:24:53;;;;;;;10.73;10.13;;;28.00;16.60;;;;;;4937535;29;20541;-45
2023/07/10 08:27:18;;;;;;;10.30;9.70;;;28.10;16.70;;;;;;4937606;29;20183;-48
2023/07/10 08:29:45;;;;;;;10.70;10.10;;;28.10;16.90;;;;;;4937288;29;20573;-50
2023/07/10 08:32:10;;;;;;;10.70;9.90;;;28.00;17.20;;;;;;4937564;29;20715;-47
2023/07/10 08:34:36;;;;;;;11.33;10.63;;;28.10;17.10;;;;;;4953506;29;20419;-49
2023/07/10 08:37:02;;;;;;;11.10;10.37;;;28.20;17.40;;;;;;4953290;29;20184;-44
2023/07/10 08:39:27;;;;;;;10.30;9.70;;;28.30;17.40;;;;;;4937251;29;20183;-47
2023/07/10 08:42:02;;;;;;;11.30;10.60;;;28.30;17.10;;;;;;4937356;29;20562;-48
2023/07/10 08:44:36;;;;;;;11.00;10.30;;;28.20;17.40;;;;;;4937432;29;20206;-44
2023/07/10 08:47:42;;;;;;;11.10;10.50;;;28.20;18.10;;;;;;4937125;29;20860;-43
2023/07/10 08:50:29;;;;;;;11.90;11.20;;;28.10;18.00;;;;;;4954397;29;20811;-47
2023/07/10 08:53:19;;;;;;;11.53;10.77;;;28.00;17.80;;;;;;4937145;29;20437;-43
2023/07/10 08:56:10;;;;;;;11.63;11.03;;;27.90;18.00;;;;;;4937126;29;20505;-43
2023/07/10 08:58:38;;;;;;;11.23;10.53;;;27.90;18.00;;;;;;4937061;29;20442;-51
2023/07/10 09:01:10;;;;;;;12.00;11.10;;;27.80;17.90;;;;;;4937016;29;20426;-50
2023/07/10 09:03:44;;;;;;;11.57;10.87;;;27.90;18.00;;;;;;4937082;29;20518;-47
2023/07/10 09:06:49;;;;;;;12.10;11.40;;;27.80;18.40;;;;;;4937166;29;20418;-46
2023/07/10 09:09:27;;;;;;;12.13;11.20;;;27.80;19.20;;;;;;4936687;29;20429;-48
2023/07/10 09:11:54;;;;;;;10.70;10.10;;;27.80;19.10;;;;;;4952819;29;20461;-51
2023/07/10 09:14:19;;;;;;;11.80;11.10;;;27.70;19.50;;;;;;4936949;29;20422;-48
2023/07/10 09:16:46;;;;;;;11.70;11.10;;;27.80;19.50;;;;;;4952679;29;20407;-46
2023/07/10 09:19:18;;;;;;;11.70;10.97;;;27.80;19.80;;;;;;4936592;29;20532;-51
2023/07/10 09:21:44;;;;;;;12.50;11.37;;;27.70;19.90;;;;;;4936756;29;20506;-48
2023/07/10 09:24:18;;;;;;;11.60;10.90;;;27.70;20.30;;;;;;4936653;29;20553;-43
2023/07/10 09:26:43;;;;;;;12.10;11.30;;;27.70;20.20;;;;;;4936804;29;20179;-50
2023/07/10 09:29:14;;;;;;;12.67;11.77;;;27.70;20.30;;;;;;4936507;29;20421;-50
2023/07/10 09:31:49;;;;;;;12.10;11.40;;;27.70;20.50;;;;;;4952586;29;20214;-47
2023/07/10 09:34:14;;;;;;;12.70;11.83;;;27.60;20.60;;;;;;4952599;29;20483;-47
2023/07/10 09:36:40;;;;;;;12.10;11.40;;;27.60;20.90;;;;;;4936737;29;20521;-46
2023/07/10 09:39:06;;;;;;;11.90;11.30;;;27.50;20.50;;;;;;4936376;29;20657;-46
2023/07/10 09:41:31;;;;;;;11.43;10.73;;;27.50;20.80;;;;;;4936596;29;20190;-45
2023/07/10 09:44:03;;;;;;;12.33;11.43;;;27.50;21.00;;;;;;4936493;29;20207;-44
2023/07/10 09:46:32;;;;;;;10.80;10.20;;;27.50;21.60;;;;;;4936462;29;20238;-49
2023/07/10 09:49:01;;;;;;;12.27;11.10;;;27.50;21.60;;;;;;4936282;29;20415;-44
2023/07/10 09:51:28;;;;;;;12.00;11.30;;;27.50;20.90;;;;;;4936503;29;20412;-44
2023/07/10 09:54:03;;;;;;;12.23;11.23;;;27.50;21.20;;;;;;4936477;29;20510;-43
2023/07/10 09:56:38;;;;;;;11.23;10.43;;;27.50;21.20;;;;;;4936598;29;20425;-46
2023/07/10 09:59:26;;;;;;;11.90;11.20;;;27.60;20.50;;;;;;4936190;29;20434;-44
2023/07/10 10:01:54;;;;;;;11.17;10.40;;;27.60;20.30;;;;;;4936244;29;20424;-43
2023/07/10 10:04:26;;;;;;;11.40;10.80;;;27.70;20.40;;;;;;4936446;29;20904;-43
2023/07/10 10:07:04;;;;;;;12.20;11.10;;;27.80;19.70;;;;;;4936362;29;20450;-44
2023/07/10 10:09:30;;;;;;;12.17;11.27;;;28.00;19.30;;;;;;4936105;29;20414;-43
2023/07/10 10:12:08;;;;;;;11.20;10.60;;;28.00;18.80;;;;;;4953327;29;20469;-44
2023/07/10 10:14:47;;;;;;;12.33;11.53;;;28.20;18.70;;;;;;4936298;29;20175;-43
2023/07/10 10:17:18;;;;;;;11.77;10.93;;;28.20;18.80;;;;;;4936202;29;20415;-44
2023/07/10 10:19:49;;;;;;;11.40;10.60;;;28.30;18.20;;;;;;4935913;29;20974;-46
2023/07/10 10:22:15;;;;;;;11.37;10.77;;;28.50;18.20;;;;;;4936275;29;20462;-47
2023/07/10 10:24:41;;;;;;;12.07;11.20;;;28.70;17.60;;;;;;4936200;28;20782;-45
2023/07/10 10:27:25;;;;;;;11.93;11.13;;;28.80;17.60;;;;;;4939121;29;20418;-46
2023/07/10 10:29:59;;;;;;;12.17;10.97;;;28.90;17.30;;;;;;4955415;29;20443;-44
2023/07/10 10:32:33;;;;;;;11.83;11.03;;;28.90;17.60;;;;;;4955653;29;20450;-46
2023/07/10 10:35:29;;;;;;;12.67;11.90;;;29.00;17.20;;;;;;4955542;29;20437;-43
2023/07/10 10:38:02;;;;;;;11.80;11.10;;;29.10;17.10;;;;;;4939612;29;20435;-47
2023/07/10 10:40:37;;;;;;;11.90;11.20;;;29.10;16.90;;;;;;4956717;29;20908;-46
2023/07/10 10:43:02;;;;;;;13.47;12.47;;;29.10;16.80;;;;;;4955297;29;20449;-48
2023/07/10 10:45:37;;;;;;;12.70;11.60;;;29.10;16.90;;;;;;4955390;29;20415;-44
2023/07/10 10:48:19;;;;;;;12.70;11.90;;;29.20;16.50;;;;;;4939337;29;20225;-44
2023/07/10 10:51:14;;;;;;;12.10;11.40;;;29.30;16.20;;;;;;4939503;29;20419;-45
2023/07/10 10:54:05;;;;;;;11.90;11.20;;;29.30;16.10;;;;;;4955490;29;20553;-46
2023/07/10 10:56:54;;;;;;;13.43;12.17;;;29.20;16.30;;;;;;4955333;29;20513;-45
2023/07/10 10:59:56;;;;;;;12.30;11.40;;;29.20;16.20;;;;;;4939082;29;20445;-43
2023/07/10 11:02:38;;;;;;;12.27;11.40;;;29.20;16.60;;;;;;4955069;29;20454;-43
2023/07/10 11:05:16;;;;;;;13.37;12.17;;;29.20;16.20;;;;;;4939038;29;20415;-46
2023/07/10 11:07:44;;;;;;;11.63;10.67;;;29.20;16.40;;;;;;4954678;29;20806;-46
2023/07/10 11:10:22;;;;;;;11.60;11.00;;;29.10;16.70;;;;;;4938902;29;20489;-46
2023/07/10 11:12:47;;;;;;;12.40;11.60;;;29.20;16.50;;;;;;4939215;29;20443;-43
2023/07/10 11:15:23;;;;;;;12.20;11.30;;;29.30;15.90;;;;;;4939173;29;20893;-49
2023/07/10 11:17:52;;;;;;;13.47;12.67;;;29.30;15.70;;;;;;4938918;29;20234;-49
2023/07/10 11:20:18;;;;;;;13.07;12.37;;;29.40;15.40;;;;;;4939068;29;20463;-48
2023/07/10 11:22:55;;;;;;;12.50;11.67;;;29.30;14.90;;;;;;4938922;29;20463;-46
2023/07/10 11:25:38;;;;;;;12.33;11.67;;;29.30;15.10;;;;;;4939045;29;20779;-43
2023/07/10 11:28:28;;;;;;;13.23;12.33;;;29.10;15.10;;;;;;4938529;29;20427;-45
2023/07/10 11:31:23;;;;;;;11.83;11.10;;;29.10;15.00;;;;;;4935734;29;20426;-48
2023/07/10 11:34:08;;;;;;;12.30;11.23;;;29.10;14.90;;;;;;4938748;29;20474;-44
2023/07/10 11:36:33;;;;;;;12.30;11.67;;;29.50;12.90;;;;;;4938749;29;21003;-51
2023/07/10 11:39:05;;;;;;;11.50;10.90;;;29.50;13.30;;;;;;4954333;29;20498;-48
2023/07/10 11:41:34;;;;;;;12.00;11.20;;;29.40;13.50;;;;;;4955656;29;20190;-49
2023/07/10 11:44:17;;;;;;;11.70;11.00;;;29.40;13.60;;;;;;4938095;29;20538;-44
2023/07/10 11:47:02;;;;;;;11.30;10.70;;;29.60;13.30;;;;;;4938375;29;20419;-49
2023/07/10 11:49:42;;;;;;;11.87;11.27;;;29.70;12.80;;;;;;4938062;29;20430;-46
2023/07/10 11:52:14;;;;;;;10.87;10.17;;;29.70;11.40;;;;;;4954568;28;20484;-49
2023/07/10 11:54:46;;;;;;;11.50;10.70;;;30.00;10.10;;;;;;4938065;29;20411;-48
2023/07/10 11:57:15;;;;;;;11.63;10.67;;;30.10;10.20;;;;;;4937922;29;20513;-48
2023/07/10 11:59:52;;;;;;;11.00;10.30;;;30.20;10.20;;;;;;4937795;29;20430;-48
2023/07/10 12:02:33;;;;;;;11.50;10.77;;;30.10;9.80;;;;;;4938031;29;20557;-43
2023/07/10 12:05:16;;;;;;;10.87;10.13;;;30.20;9.70;;;;;;4937786;29;20450;-43
2023/07/10 12:07:58;;;;;;;11.70;11.10;;;30.20;9.30;;;;;;4937892;29;20412;-48
2023/07/10 12:10:27;;;;;;;11.83;11.03;;;30.20;9.40;;;;;;4937848;29;20932;-45
2023/07/10 12:12:54;;;;;;;11.57;10.97;;;30.30;8.80;;;;;;4937591;29;20446;-43
2023/07/10 12:15:20;;;;;;;11.47;10.77;;;30.40;7.90;;;;;;4937634;29;20794;-49
2023/07/10 12:17:48;;;;;;;11.33;10.67;;;30.60;6.70;;;;;;4937487;29;20490;-46
2023/07/10 12:20:32;;;;;;;11.50;10.77;;;30.70;4.90;;;;;;4937565;29;20589;-48
2023/07/10 12:23:06;;;;;;;11.40;10.80;;;31.00;6.00;;;;;;4937375;29;20463;-45
2023/07/10 12:25:32;;;;;;;11.80;10.90;;;31.10;5.90;;;;;;4937566;29;20425;-49
2023/07/10 12:28:02;;;;;;;10.93;10.33;;;31.00;6.00;;;;;;4937144;29;20419;-43
2023/07/10 12:30:28;;;;;;;10.80;10.20;;;30.90;6.00;;;;;;4937497;29;20806;-44
2023/07/10 12:32:55;;;;;;;10.30;9.80;;;31.00;5.50;;;;;;4937358;29;20927;-45
2023/07/10 12:35:41;;;;;;;10.73;10.17;;;30.90;6.00;;;;;;4937312;29;20421;-47
2023/07/10 12:38:10;;;;;;;10.90;10.40;;;31.10;4.90;;;;;;4936659;29;20450;-44
2023/07/10 12:40:38;;;;;;;10.93;10.33;;;31.10;5.10;;;;;;4937221;29;20426;-45
2023/07/10 12:43:22;;;;;;;10.20;9.50;;;30.90;5.20;;;;;;4937019;29;20798;-45
2023/07/10 12:45:58;;;;;;;11.73;11.03;;;30.70;5.10;;;;;;4937133;29;20422;-47